sensor_id;sensor_type;location;lat;lon;timestamp;P1;durP1;ratioP1;P2;durP2;ratioP2
67816;SDS011;54614;47.576;7.524;2022-09-02T00:01:11;3.92;;;2.50;;
67816;SDS011;54614;47.576;7.524;2022-09-02T00:03:41;2.53;;;2.33;;
67816;SDS011;54614;47.576;7.524;2022-09-02T00:06:08;2.40;;;2.20;;
67816;SDS011;54614;47.576;7.524;2022-09-02T00:08:35;3.25;;;2.28;;
67816;SDS011;54614;47.576;7.524;2022-09-02T00:11:02;2.58;;;2.38;;
67816;SDS011;54614;47.576;7.524;2022-09-02T00:13:30;2.47;;;2.25;;
67816;SDS011;54614;47.576;7.524;2022-09-02T00:15:58;2.50;;;2.30;;
67816;SDS011;54614;47.576;7.524;2022-09-02T00:18:24;2.63;;;2.42;;
67816;SDS011;54614;47.576;7.524;2022-09-02T00:20:51;2.75;;;2.30;;
67816;SDS011;54614;47.576;7.524;2022-09-02T00:23:17;2.30;;;2.20;;
67816;SDS011;54614;47.576;7.524;2022-09-02T00:25:44;2.80;;;2.30;;
67816;SDS011;54614;47.576;7.524;2022-09-02T00:28:11;2.40;;;2.20;;
67816;SDS011;54614;47.576;7.524;2022-09-02T00:30:39;2.30;;;2.20;;
67816;SDS011;54614;47.576;7.524;2022-09-02T00:33:07;2.60;;;2.40;;
67816;SDS011;54614;47.576;7.524;2022-09-02T00:35:34;2.67;;;2.28;;
67816;SDS011;54614;47.576;7.524;2022-09-02T00:38:01;2.60;;;2.40;;
67816;SDS011;54614;47.576;7.524;2022-09-02T00:40:30;2.28;;;2.17;;
67816;SDS011;54614;47.576;7.524;2022-09-02T00:42:57;2.38;;;2.28;;
67816;SDS011;54614;47.576;7.524;2022-09-02T00:45:23;2.50;;;2.30;;
67816;SDS011;54614;47.576;7.524;2022-09-02T00:47:50;2.55;;;2.25;;
67816;SDS011;54614;47.576;7.524;2022-09-02T00:50:17;2.35;;;2.20;;
67816;SDS011;54614;47.576;7.524;2022-09-02T00:52:52;2.58;;;2.38;;
67816;SDS011;54614;47.576;7.524;2022-09-02T00:55:24;2.40;;;2.20;;
67816;SDS011;54614;47.576;7.524;2022-09-02T00:57:58;3.45;;;2.45;;
67816;SDS011;54614;47.576;7.524;2022-09-02T01:00:35;2.20;;;2.10;;
67816;SDS011;54614;47.576;7.524;2022-09-02T01:03:08;2.17;;;2.08;;
67816;SDS011;54614;47.576;7.524;2022-09-02T01:05:41;2.97;;;2.28;;
67816;SDS011;54614;47.576;7.524;2022-09-02T01:08:11;2.75;;;2.20;;
67816;SDS011;54614;47.576;7.524;2022-09-02T01:10:43;2.35;;;2.20;;
67816;SDS011;54614;47.576;7.524;2022-09-02T01:13:13;2.35;;;2.20;;
67816;SDS011;54614;47.576;7.524;2022-09-02T01:15:45;2.42;;;2.30;;
67816;SDS011;54614;47.576;7.524;2022-09-02T01:18:18;2.65;;;2.45;;
67816;SDS011;54614;47.576;7.524;2022-09-02T01:20:50;2.25;;;2.05;;
67816;SDS011;54614;47.576;7.524;2022-09-02T01:23:16;3.15;;;2.30;;
67816;SDS011;54614;47.576;7.524;2022-09-02T01:25:44;2.35;;;2.15;;
67816;SDS011;54614;47.576;7.524;2022-09-02T01:28:14;2.30;;;2.10;;
67816;SDS011;54614;47.576;7.524;2022-09-02T01:30:47;3.25;;;2.13;;
67816;SDS011;54614;47.576;7.524;2022-09-02T01:33:18;2.40;;;2.20;;
67816;SDS011;54614;47.576;7.524;2022-09-02T01:35:45;2.38;;;2.25;;
67816;SDS011;54614;47.576;7.524;2022-09-02T01:38:12;3.97;;;1.98;;
67816;SDS011;54614;47.576;7.524;2022-09-02T01:40:39;2.45;;;2.13;;
67816;SDS011;54614;47.576;7.524;2022-09-02T01:43:07;2.40;;;2.20;;
67816;SDS011;54614;47.576;7.524;2022-09-02T01:45:40;2.17;;;2.08;;
67816;SDS011;54614;47.576;7.524;2022-09-02T01:48:10;2.20;;;2.10;;
67816;SDS011;54614;47.576;7.524;2022-09-02T01:50:39;2.20;;;2.10;;
67816;SDS011;54614;47.576;7.524;2022-09-02T01:53:11;2.58;;;2.20;;
67816;SDS011;54614;47.576;7.524;2022-09-02T01:55:37;2.13;;;2.03;;
67816;SDS011;54614;47.576;7.524;2022-09-02T01:58:03;2.17;;;2.08;;
67816;SDS011;54614;47.576;7.524;2022-09-02T02:00:29;2.30;;;2.20;;
67816;SDS011;54614;47.576;7.524;2022-09-02T02:02:55;2.25;;;2.15;;
67816;SDS011;54614;47.576;7.524;2022-09-02T02:05:22;2.42;;;2.25;;
67816;SDS011;54614;47.576;7.524;2022-09-02T02:07:48;2.30;;;2.17;;
67816;SDS011;54614;47.576;7.524;2022-09-02T02:10:16;2.45;;;2.17;;
67816;SDS011;54614;47.576;7.524;2022-09-02T02:12:45;2.10;;;2.00;;
67816;SDS011;54614;47.576;7.524;2022-09-02T02:15:13;2.20;;;2.10;;
67816;SDS011;54614;47.576;7.524;2022-09-02T02:17:43;2.20;;;2.10;;
67816;SDS011;54614;47.576;7.524;2022-09-02T02:20:10;2.20;;;2.10;;
67816;SDS011;54614;47.576;7.524;2022-09-02T02:22:40;2.10;;;2.00;;
67816;SDS011;54614;47.576;7.524;2022-09-02T02:25:07;2.20;;;2.10;;
67816;SDS011;54614;47.576;7.524;2022-09-02T02:27:34;2.20;;;2.10;;
67816;SDS011;54614;47.576;7.524;2022-09-02T02:30:00;4.07;;;2.20;;
67816;SDS011;54614;47.576;7.524;2022-09-02T02:32:26;2.05;;;1.95;;
67816;SDS011;54614;47.576;7.524;2022-09-02T02:34:53;2.58;;;2.00;;
67816;SDS011;54614;47.576;7.524;2022-09-02T02:37:20;2.40;;;2.20;;
67816;SDS011;54614;47.576;7.524;2022-09-02T02:39:46;2.95;;;2.42;;
67816;SDS011;54614;47.576;7.524;2022-09-02T02:42:11;2.45;;;2.25;;
67816;SDS011;54614;47.576;7.524;2022-09-02T02:44:38;2.00;;;1.90;;
67816;SDS011;54614;47.576;7.524;2022-09-02T02:47:06;2.35;;;2.15;;
67816;SDS011;54614;47.576;7.524;2022-09-02T02:49:39;2.30;;;2.13;;
67816;SDS011;54614;47.576;7.524;2022-09-02T02:52:08;2.20;;;2.10;;
67816;SDS011;54614;47.576;7.524;2022-09-02T02:54:35;2.92;;;2.10;;
67816;SDS011;54614;47.576;7.524;2022-09-02T02:57:03;2.20;;;2.10;;
67816;SDS011;54614;47.576;7.524;2022-09-02T02:59:29;2.13;;;2.03;;
67816;SDS011;54614;47.576;7.524;2022-09-02T03:01:56;2.20;;;2.10;;
67816;SDS011;54614;47.576;7.524;2022-09-02T03:04:22;2.20;;;1.90;;
67816;SDS011;54614;47.576;7.524;2022-09-02T03:06:48;2.22;;;2.13;;
67816;SDS011;54614;47.576;7.524;2022-09-02T03:09:15;2.35;;;2.13;;
67816;SDS011;54614;47.576;7.524;2022-09-02T03:11:44;2.17;;;2.08;;
67816;SDS011;54614;47.576;7.524;2022-09-02T03:14:11;2.20;;;2.10;;
67816;SDS011;54614;47.576;7.524;2022-09-02T03:16:37;2.20;;;2.10;;
67816;SDS011;54614;47.576;7.524;2022-09-02T03:19:03;2.10;;;2.00;;
67816;SDS011;54614;47.576;7.524;2022-09-02T03:21:30;2.13;;;2.03;;
67816;SDS011;54614;47.576;7.524;2022-09-02T03:23:57;2.10;;;2.00;;
67816;SDS011;54614;47.576;7.524;2022-09-02T03:26:23;2.22;;;2.10;;
67816;SDS011;54614;47.576;7.524;2022-09-02T03:28:52;2.28;;;2.17;;
67816;SDS011;54614;47.576;7.524;2022-09-02T03:31:23;2.17;;;2.08;;
67816;SDS011;54614;47.576;7.524;2022-09-02T03:33:51;2.17;;;1.98;;
67816;SDS011;54614;47.576;7.524;2022-09-02T03:36:38;2.40;;;2.30;;
67816;SDS011;54614;47.576;7.524;2022-09-02T03:39:06;2.00;;;1.90;;
67816;SDS011;54614;47.576;7.524;2022-09-02T03:41:33;1.95;;;1.85;;
67816;SDS011;54614;47.576;7.524;2022-09-02T03:44:00;2.20;;;2.10;;
67816;SDS011;54614;47.576;7.524;2022-09-02T03:46:26;3.40;;;2.10;;
67816;SDS011;54614;47.576;7.524;2022-09-02T03:48:52;2.17;;;1.92;;
67816;SDS011;54614;47.576;7.524;2022-09-02T03:51:19;2.05;;;1.95;;
67816;SDS011;54614;47.576;7.524;2022-09-02T03:53:47;2.17;;;2.00;;
67816;SDS011;54614;47.576;7.524;2022-09-02T03:56:13;2.28;;;2.10;;
67816;SDS011;54614;47.576;7.524;2022-09-02T03:58:41;2.13;;;2.03;;
67816;SDS011;54614;47.576;7.524;2022-09-02T04:01:12;2.30;;;2.20;;
67816;SDS011;54614;47.576;7.524;2022-09-02T04:03:47;2.22;;;1.90;;
67816;SDS011;54614;47.576;7.524;2022-09-02T04:06:14;2.20;;;2.10;;
67816;SDS011;54614;47.576;7.524;2022-09-02T04:08:44;2.20;;;2.10;;
67816;SDS011;54614;47.576;7.524;2022-09-02T04:11:12;2.13;;;2.03;;
67816;SDS011;54614;47.576;7.524;2022-09-02T04:13:43;2.30;;;2.20;;
67816;SDS011;54614;47.576;7.524;2022-09-02T04:16:13;2.13;;;2.03;;
67816;SDS011;54614;47.576;7.524;2022-09-02T04:18:43;2.40;;;2.20;;
67816;SDS011;54614;47.576;7.524;2022-09-02T04:21:09;2.70;;;2.28;;
67816;SDS011;54614;47.576;7.524;2022-09-02T04:23:37;2.75;;;2.15;;
67816;SDS011;54614;47.576;7.524;2022-09-02T04:26:07;2.03;;;1.92;;
67816;SDS011;54614;47.576;7.524;2022-09-02T04:28:37;2.05;;;1.95;;
67816;SDS011;54614;47.576;7.524;2022-09-02T04:31:05;2.15;;;1.95;;
67816;SDS011;54614;47.576;7.524;2022-09-02T04:33:35;1.98;;;1.88;;
67816;SDS011;54614;47.576;7.524;2022-09-02T04:36:06;2.17;;;2.08;;
67816;SDS011;54614;47.576;7.524;2022-09-02T04:38:35;2.30;;;2.10;;
67816;SDS011;54614;47.576;7.524;2022-09-02T04:41:04;2.38;;;2.28;;
67816;SDS011;54614;47.576;7.524;2022-09-02T04:43:32;2.00;;;1.90;;
67816;SDS011;54614;47.576;7.524;2022-09-02T04:45:57;2.00;;;1.90;;
67816;SDS011;54614;47.576;7.524;2022-09-02T04:48:23;4.55;;;2.10;;
67816;SDS011;54614;47.576;7.524;2022-09-02T04:50:49;2.58;;;2.10;;
67816;SDS011;54614;47.576;7.524;2022-09-02T04:53:15;2.00;;;1.90;;
67816;SDS011;54614;47.576;7.524;2022-09-02T04:55:41;2.10;;;1.90;;
67816;SDS011;54614;47.576;7.524;2022-09-02T04:58:08;1.98;;;1.88;;
67816;SDS011;54614;47.576;7.524;2022-09-02T05:00:38;4.35;;;2.20;;
67816;SDS011;54614;47.576;7.524;2022-09-02T05:03:04;2.38;;;2.20;;
67816;SDS011;54614;47.576;7.524;2022-09-02T05:05:31;2.65;;;2.10;;
67816;SDS011;54614;47.576;7.524;2022-09-02T05:07:58;4.10;;;2.03;;
67816;SDS011;54614;47.576;7.524;2022-09-02T05:10:25;2.40;;;2.20;;
67816;SDS011;54614;47.576;7.524;2022-09-02T05:12:52;2.30;;;2.08;;
67816;SDS011;54614;47.576;7.524;2022-09-02T05:15:18;2.10;;;2.00;;
67816;SDS011;54614;47.576;7.524;2022-09-02T05:17:44;2.20;;;2.00;;
67816;SDS011;54614;47.576;7.524;2022-09-02T05:20:10;2.50;;;2.10;;
67816;SDS011;54614;47.576;7.524;2022-09-02T05:22:37;2.20;;;2.00;;
67816;SDS011;54614;47.576;7.524;2022-09-02T05:25:04;6.30;;;2.15;;
67816;SDS011;54614;47.576;7.524;2022-09-02T05:27:32;4.38;;;2.03;;
67816;SDS011;54614;47.576;7.524;2022-09-02T05:29:59;2.30;;;2.10;;
67816;SDS011;54614;47.576;7.524;2022-09-02T05:32:26;4.30;;;2.03;;
67816;SDS011;54614;47.576;7.524;2022-09-02T05:34:52;3.72;;;2.20;;
67816;SDS011;54614;47.576;7.524;2022-09-02T05:37:20;6.75;;;2.28;;
67816;SDS011;54614;47.576;7.524;2022-09-02T05:39:48;5.25;;;2.30;;
67816;SDS011;54614;47.576;7.524;2022-09-02T05:42:15;5.18;;;2.20;;
67816;SDS011;54614;47.576;7.524;2022-09-02T05:44:43;6.43;;;2.30;;
67816;SDS011;54614;47.576;7.524;2022-09-02T05:47:10;5.32;;;2.30;;
67816;SDS011;54614;47.576;7.524;2022-09-02T05:49:36;7.72;;;2.30;;
67816;SDS011;54614;47.576;7.524;2022-09-02T05:52:03;8.02;;;2.22;;
67816;SDS011;54614;47.576;7.524;2022-09-02T05:54:34;6.03;;;2.40;;
67816;SDS011;54614;47.576;7.524;2022-09-02T05:57:04;7.00;;;2.20;;
67816;SDS011;54614;47.576;7.524;2022-09-02T05:59:40;9.82;;;2.20;;
67816;SDS011;54614;47.576;7.524;2022-09-02T06:02:08;4.15;;;2.22;;
67816;SDS011;54614;47.576;7.524;2022-09-02T06:04:39;5.20;;;2.20;;
67816;SDS011;54614;47.576;7.524;2022-09-02T06:07:09;3.63;;;2.10;;
67816;SDS011;54614;47.576;7.524;2022-09-02T06:09:36;4.40;;;2.30;;
67816;SDS011;54614;47.576;7.524;2022-09-02T06:12:02;5.40;;;2.22;;
67816;SDS011;54614;47.576;7.524;2022-09-02T06:14:28;2.08;;;1.95;;
67816;SDS011;54614;47.576;7.524;2022-09-02T06:16:55;2.30;;;1.90;;
67816;SDS011;54614;47.576;7.524;2022-09-02T06:19:23;3.35;;;2.20;;
67816;SDS011;54614;47.576;7.524;2022-09-02T06:21:54;2.50;;;2.20;;
67816;SDS011;54614;47.576;7.524;2022-09-02T06:24:21;2.78;;;2.10;;
67816;SDS011;54614;47.576;7.524;2022-09-02T06:26:47;2.75;;;2.30;;
67816;SDS011;54614;47.576;7.524;2022-09-02T06:29:14;5.72;;;2.15;;
67816;SDS011;54614;47.576;7.524;2022-09-02T06:31:40;2.20;;;2.00;;
67816;SDS011;54614;47.576;7.524;2022-09-02T06:34:09;5.03;;;2.10;;
67816;SDS011;54614;47.576;7.524;2022-09-02T06:36:37;4.47;;;2.10;;
67816;SDS011;54614;47.576;7.524;2022-09-02T06:39:04;4.38;;;1.92;;
67816;SDS011;54614;47.576;7.524;2022-09-02T06:41:31;2.35;;;2.15;;
67816;SDS011;54614;47.576;7.524;2022-09-02T06:44:02;3.58;;;2.15;;
67816;SDS011;54614;47.576;7.524;2022-09-02T06:46:31;2.25;;;2.05;;
67816;SDS011;54614;47.576;7.524;2022-09-02T06:49:00;4.22;;;2.30;;
67816;SDS011;54614;47.576;7.524;2022-09-02T06:51:29;3.45;;;2.10;;
67816;SDS011;54614;47.576;7.524;2022-09-02T06:54:03;4.25;;;2.13;;
67816;SDS011;54614;47.576;7.524;2022-09-02T06:56:31;2.80;;;2.00;;
67816;SDS011;54614;47.576;7.524;2022-09-02T06:58:58;3.83;;;2.38;;
67816;SDS011;54614;47.576;7.524;2022-09-02T07:01:26;2.83;;;2.08;;
67816;SDS011;54614;47.576;7.524;2022-09-02T07:03:55;5.68;;;2.08;;
67816;SDS011;54614;47.576;7.524;2022-09-02T07:06:42;3.30;;;2.15;;
67816;SDS011;54614;47.576;7.524;2022-09-02T07:09:13;2.60;;;2.10;;
67816;SDS011;54614;47.576;7.524;2022-09-02T07:11:44;7.00;;;2.63;;
67816;SDS011;54614;47.576;7.524;2022-09-02T07:14:12;3.15;;;2.00;;
67816;SDS011;54614;47.576;7.524;2022-09-02T07:16:44;3.70;;;1.98;;
67816;SDS011;54614;47.576;7.524;2022-09-02T07:19:14;3.95;;;2.10;;
67816;SDS011;54614;47.576;7.524;2022-09-02T07:21:41;2.92;;;2.00;;
67816;SDS011;54614;47.576;7.524;2022-09-02T07:24:08;2.22;;;2.00;;
67816;SDS011;54614;47.576;7.524;2022-09-02T07:26:37;3.38;;;1.95;;
67816;SDS011;54614;47.576;7.524;2022-09-02T07:29:04;2.58;;;1.90;;
67816;SDS011;54614;47.576;7.524;2022-09-02T07:31:33;4.22;;;2.15;;
67816;SDS011;54614;47.576;7.524;2022-09-02T07:34:02;2.20;;;2.00;;
67816;SDS011;54614;47.576;7.524;2022-09-02T07:36:30;2.10;;;1.90;;
67816;SDS011;54614;47.576;7.524;2022-09-02T07:38:59;4.93;;;2.10;;
67816;SDS011;54614;47.576;7.524;2022-09-02T07:41:25;2.53;;;1.90;;
67816;SDS011;54614;47.576;7.524;2022-09-02T07:43:52;3.55;;;2.00;;
67816;SDS011;54614;47.576;7.524;2022-09-02T07:46:18;2.58;;;1.95;;
67816;SDS011;54614;47.576;7.524;2022-09-02T07:48:44;3.50;;;2.08;;
67816;SDS011;54614;47.576;7.524;2022-09-02T07:51:14;3.58;;;2.15;;
67816;SDS011;54614;47.576;7.524;2022-09-02T07:53:43;4.25;;;1.83;;
67816;SDS011;54614;47.576;7.524;2022-09-02T07:56:10;2.10;;;1.95;;
67816;SDS011;54614;47.576;7.524;2022-09-02T07:58:38;2.22;;;1.90;;
67816;SDS011;54614;47.576;7.524;2022-09-02T08:01:08;2.53;;;2.00;;
67816;SDS011;54614;47.576;7.524;2022-09-02T08:03:36;3.00;;;1.90;;
67816;SDS011;54614;47.576;7.524;2022-09-02T08:06:05;2.88;;;2.00;;
67816;SDS011;54614;47.576;7.524;2022-09-02T08:08:32;3.05;;;1.90;;
67816;SDS011;54614;47.576;7.524;2022-09-02T08:10:59;2.72;;;1.75;;
67816;SDS011;54614;47.576;7.524;2022-09-02T08:13:25;2.08;;;1.98;;
67816;SDS011;54614;47.576;7.524;2022-09-02T08:15:51;2.03;;;1.88;;
67816;SDS011;54614;47.576;7.524;2022-09-02T08:18:18;1.92;;;1.83;;
67816;SDS011;54614;47.576;7.524;2022-09-02T08:20:45;1.90;;;1.80;;
67816;SDS011;54614;47.576;7.524;2022-09-02T08:23:11;3.78;;;2.00;;
67816;SDS011;54614;47.576;7.524;2022-09-02T08:25:38;2.67;;;1.70;;
67816;SDS011;54614;47.576;7.524;2022-09-02T08:28:05;2.85;;;1.85;;
67816;SDS011;54614;47.576;7.524;2022-09-02T08:30:32;2.55;;;2.20;;
67816;SDS011;54614;47.576;7.524;2022-09-02T08:32:58;1.98;;;1.80;;
67816;SDS011;54614;47.576;7.524;2022-09-02T08:35:25;2.47;;;2.20;;
67816;SDS011;54614;47.576;7.524;2022-09-02T08:37:51;1.85;;;1.75;;
67816;SDS011;54614;47.576;7.524;2022-09-02T08:40:21;2.20;;;2.00;;
67816;SDS011;54614;47.576;7.524;2022-09-02T08:42:58;2.00;;;1.90;;
67816;SDS011;54614;47.576;7.524;2022-09-02T08:45:45;3.08;;;1.98;;
67816;SDS011;54614;47.576;7.524;2022-09-02T08:48:18;2.00;;;1.80;;
67816;SDS011;54614;47.576;7.524;2022-09-02T08:50:49;1.90;;;1.80;;
67816;SDS011;54614;47.576;7.524;2022-09-02T08:53:26;2.75;;;1.80;;
67816;SDS011;54614;47.576;7.524;2022-09-02T08:56:18;3.17;;;2.00;;
67816;SDS011;54614;47.576;7.524;2022-09-02T08:58:47;2.55;;;2.00;;
67816;SDS011;54614;47.576;7.524;2022-09-02T09:16:06;1.95;;;1.85;;
67816;SDS011;54614;47.576;7.524;2022-09-02T09:19:05;4.68;;;2.10;;
67816;SDS011;54614;47.576;7.524;2022-09-02T09:21:41;3.42;;;1.70;;
67816;SDS011;54614;47.576;7.524;2022-09-02T09:24:16;2.20;;;2.00;;
67816;SDS011;54614;47.576;7.524;2022-09-02T09:26:49;2.13;;;1.80;;
67816;SDS011;54614;47.576;7.524;2022-09-02T09:29:17;1.98;;;1.88;;
67816;SDS011;54614;47.576;7.524;2022-09-02T09:31:43;1.80;;;1.70;;
67816;SDS011;54614;47.576;7.524;2022-09-02T09:34:18;2.72;;;1.90;;
67816;SDS011;54614;47.576;7.524;2022-09-02T09:36:53;1.90;;;1.80;;
67816;SDS011;54614;47.576;7.524;2022-09-02T09:42:11;2.53;;;1.70;;
67816;SDS011;54614;47.576;7.524;2022-09-02T09:44:40;3.25;;;1.92;;
67816;SDS011;54614;47.576;7.524;2022-09-02T09:47:16;2.75;;;1.77;;
67816;SDS011;54614;47.576;7.524;2022-09-02T09:49:47;2.22;;;1.90;;
67816;SDS011;54614;47.576;7.524;2022-09-02T09:52:26;2.05;;;1.85;;
67816;SDS011;54614;47.576;7.524;2022-09-02T09:55:09;1.70;;;1.60;;
67816;SDS011;54614;47.576;7.524;2022-09-02T09:57:42;2.95;;;1.88;;
67816;SDS011;54614;47.576;7.524;2022-09-02T10:00:12;2.20;;;1.98;;
67816;SDS011;54614;47.576;7.524;2022-09-02T10:02:52;1.95;;;1.85;;
67816;SDS011;54614;47.576;7.524;2022-09-02T10:07:57;2.08;;;1.92;;
67816;SDS011;54614;47.576;7.524;2022-09-02T10:10:27;1.80;;;1.70;;
67816;SDS011;54614;47.576;7.524;2022-09-02T10:12:57;1.95;;;1.80;;
67816;SDS011;54614;47.576;7.524;2022-09-02T10:15:58;1.90;;;1.80;;
67816;SDS011;54614;47.576;7.524;2022-09-02T10:18:58;1.80;;;1.70;;
67816;SDS011;54614;47.576;7.524;2022-09-02T10:25:08;1.85;;;1.67;;
67816;SDS011;54614;47.576;7.524;2022-09-02T10:30:25;2.42;;;1.80;;
67816;SDS011;54614;47.576;7.524;2022-09-02T10:38:47;2.13;;;1.95;;
67816;SDS011;54614;47.576;7.524;2022-09-02T10:55:55;1.80;;;1.70;;
67816;SDS011;54614;47.576;7.524;2022-09-02T10:59:03;2.38;;;1.75;;
67816;SDS011;54614;47.576;7.524;2022-09-02T11:01:45;1.80;;;1.70;;
67816;SDS011;54614;47.576;7.524;2022-09-02T11:04:43;1.70;;;1.60;;
67816;SDS011;54614;47.576;7.524;2022-09-02T11:07:22;2.08;;;1.60;;
67816;SDS011;54614;47.576;7.524;2022-09-02T11:13:10;2.80;;;1.70;;
67816;SDS011;54614;47.576;7.524;2022-09-02T11:15:48;3.05;;;1.80;;
67816;SDS011;54614;47.576;7.524;2022-09-02T11:18:32;1.77;;;1.67;;
67816;SDS011;54614;47.576;7.524;2022-09-02T11:24:05;1.80;;;1.70;;
67816;SDS011;54614;47.576;7.524;2022-09-02T11:27:10;2.35;;;1.80;;
67816;SDS011;54614;47.576;7.524;2022-09-02T11:30:04;1.80;;;1.70;;
67816;SDS011;54614;47.576;7.524;2022-09-02T11:35:28;1.70;;;1.60;;
67816;SDS011;54614;47.576;7.524;2022-09-02T11:40:31;1.70;;;1.60;;
67816;SDS011;54614;47.576;7.524;2022-09-02T11:43:23;1.90;;;1.80;;
67816;SDS011;54614;47.576;7.524;2022-09-02T11:46:05;1.50;;;1.40;;
67816;SDS011;54614;47.576;7.524;2022-09-02T11:49:06;1.60;;;1.50;;
67816;SDS011;54614;47.576;7.524;2022-09-02T11:57:52;1.73;;;1.63;;
67816;SDS011;54614;47.576;7.524;2022-09-02T12:00:34;1.70;;;1.52;;
67816;SDS011;54614;47.576;7.524;2022-09-02T12:03:28;2.88;;;1.77;;
67816;SDS011;54614;47.576;7.524;2022-09-02T12:06:06;1.75;;;1.65;;
67816;SDS011;54614;47.576;7.524;2022-09-02T12:11:54;1.80;;;1.70;;
67816;SDS011;54614;47.576;7.524;2022-09-02T12:16:58;1.90;;;1.60;;
67816;SDS011;54614;47.576;7.524;2022-09-02T12:19:40;1.50;;;1.50;;
67816;SDS011;54614;47.576;7.524;2022-09-02T12:25:31;1.70;;;1.60;;
67816;SDS011;54614;47.576;7.524;2022-09-02T12:27:48;1.73;;;1.63;;
67816;SDS011;54614;47.576;7.524;2022-09-02T12:33:30;1.80;;;1.70;;
67816;SDS011;54614;47.576;7.524;2022-09-02T12:36:03;1.73;;;1.63;;
67816;SDS011;54614;47.576;7.524;2022-09-02T12:38:32;2.22;;;1.50;;
67816;SDS011;54614;47.576;7.524;2022-09-02T12:43:36;1.70;;;1.60;;
67816;SDS011;54614;47.576;7.524;2022-09-02T12:49:15;1.80;;;1.70;;
67816;SDS011;54614;47.576;7.524;2022-09-02T12:55:25;1.60;;;1.50;;
67816;SDS011;54614;47.576;7.524;2022-09-02T12:58:12;1.75;;;1.60;;
67816;SDS011;54614;47.576;7.524;2022-09-02T13:12:03;1.70;;;1.60;;
67816;SDS011;54614;47.576;7.524;2022-09-02T13:14:55;2.15;;;1.50;;
67816;SDS011;54614;47.576;7.524;2022-09-02T13:18:07;1.70;;;1.60;;
67816;SDS011;54614;47.576;7.524;2022-09-02T13:33:05;2.25;;;1.60;;
67816;SDS011;54614;47.576;7.524;2022-09-02T13:35:35;1.60;;;1.50;;
67816;SDS011;54614;47.576;7.524;2022-09-02T13:38:07;1.58;;;1.40;;
67816;SDS011;54614;47.576;7.524;2022-09-02T13:40:37;1.50;;;1.50;;
67816;SDS011;54614;47.576;7.524;2022-09-02T13:45:42;1.73;;;1.63;;
67816;SDS011;54614;47.576;7.524;2022-09-02T13:48:17;1.73;;;1.63;;
67816;SDS011;54614;47.576;7.524;2022-09-02T13:50:55;1.70;;;1.60;;
67816;SDS011;54614;47.576;7.524;2022-09-02T13:56:00;1.45;;;1.45;;
67816;SDS011;54614;47.576;7.524;2022-09-02T14:03:57;1.60;;;1.50;;
67816;SDS011;54614;47.576;7.524;2022-09-02T14:06:32;1.55;;;1.45;;
67816;SDS011;54614;47.576;7.524;2022-09-02T14:09:05;1.70;;;1.60;;
67816;SDS011;54614;47.576;7.524;2022-09-02T14:11:42;1.75;;;1.58;;
67816;SDS011;54614;47.576;7.524;2022-09-02T14:14:14;1.60;;;1.50;;
67816;SDS011;54614;47.576;7.524;2022-09-02T14:16:45;1.75;;;1.58;;
67816;SDS011;54614;47.576;7.524;2022-09-02T14:21:47;1.58;;;1.48;;
67816;SDS011;54614;47.576;7.524;2022-09-02T14:24:23;1.63;;;1.52;;
67816;SDS011;54614;47.576;7.524;2022-09-02T14:26:53;1.70;;;1.60;;
67816;SDS011;54614;47.576;7.524;2022-09-02T14:29:22;5.65;;;1.95;;
67816;SDS011;54614;47.576;7.524;2022-09-02T14:34:40;3.65;;;1.50;;
67816;SDS011;54614;47.576;7.524;2022-09-02T14:40:02;3.45;;;1.73;;
67816;SDS011;54614;47.576;7.524;2022-09-02T14:42:50;6.57;;;1.60;;
67816;SDS011;54614;47.576;7.524;2022-09-02T14:45:27;1.60;;;1.50;;
67816;SDS011;54614;47.576;7.524;2022-09-02T14:47:59;1.60;;;1.50;;
67816;SDS011;54614;47.576;7.524;2022-09-02T14:50:37;2.22;;;1.58;;
67816;SDS011;54614;47.576;7.524;2022-09-02T14:53:05;1.67;;;1.58;;
67816;SDS011;54614;47.576;7.524;2022-09-02T14:55:45;1.75;;;1.50;;
67816;SDS011;54614;47.576;7.524;2022-09-02T14:58:20;1.70;;;1.60;;
67816;SDS011;54614;47.576;7.524;2022-09-02T15:00:54;1.50;;;1.40;;
67816;SDS011;54614;47.576;7.524;2022-09-02T15:03:24;1.98;;;1.60;;
67816;SDS011;54614;47.576;7.524;2022-09-02T15:05:52;2.35;;;1.30;;
67816;SDS011;54614;47.576;7.524;2022-09-02T15:08:18;1.48;;;1.40;;
67816;SDS011;54614;47.576;7.524;2022-09-02T15:10:45;13.40;;;2.10;;
67816;SDS011;54614;47.576;7.524;2022-09-02T15:13:13;5.75;;;1.70;;
67816;SDS011;54614;47.576;7.524;2022-09-02T15:16:00;4.10;;;1.70;;
67816;SDS011;54614;47.576;7.524;2022-09-02T15:18:27;4.53;;;1.77;;
67816;SDS011;54614;47.576;7.524;2022-09-02T15:20:53;4.10;;;1.63;;
67816;SDS011;54614;47.576;7.524;2022-09-02T15:23:20;5.05;;;1.73;;
67816;SDS011;54614;47.576;7.524;2022-09-02T15:25:46;5.07;;;1.90;;
67816;SDS011;54614;47.576;7.524;2022-09-02T15:28:12;6.38;;;1.70;;
67816;SDS011;54614;47.576;7.524;2022-09-02T15:30:38;5.75;;;1.80;;
67816;SDS011;54614;47.576;7.524;2022-09-02T15:33:05;10.57;;;1.90;;
67816;SDS011;54614;47.576;7.524;2022-09-02T15:35:33;13.30;;;1.77;;
67816;SDS011;54614;47.576;7.524;2022-09-02T15:38:00;8.65;;;1.77;;
67816;SDS011;54614;47.576;7.524;2022-09-02T15:40:27;13.50;;;2.08;;
67816;SDS011;54614;47.576;7.524;2022-09-02T15:42:55;7.35;;;1.75;;
67816;SDS011;54614;47.576;7.524;2022-09-02T15:45:22;4.82;;;1.75;;
67816;SDS011;54614;47.576;7.524;2022-09-02T15:47:48;4.50;;;1.83;;
67816;SDS011;54614;47.576;7.524;2022-09-02T15:50:14;7.28;;;1.73;;
67816;SDS011;54614;47.576;7.524;2022-09-02T15:52:39;9.20;;;1.70;;
67816;SDS011;54614;47.576;7.524;2022-09-02T15:55:05;9.27;;;2.08;;
67816;SDS011;54614;47.576;7.524;2022-09-02T15:57:32;11.13;;;1.77;;
67816;SDS011;54614;47.576;7.524;2022-09-02T15:59:58;9.45;;;1.80;;
67816;SDS011;54614;47.576;7.524;2022-09-02T16:02:24;8.45;;;2.10;;
67816;SDS011;54614;47.576;7.524;2022-09-02T16:04:49;7.05;;;1.98;;
67816;SDS011;54614;47.576;7.524;2022-09-02T16:07:15;5.88;;;2.00;;
67816;SDS011;54614;47.576;7.524;2022-09-02T16:09:41;5.72;;;1.58;;
67816;SDS011;54614;47.576;7.524;2022-09-02T16:12:07;5.35;;;1.80;;
67816;SDS011;54614;47.576;7.524;2022-09-02T16:14:34;5.95;;;1.73;;
67816;SDS011;54614;47.576;7.524;2022-09-02T16:17:00;10.88;;;2.10;;
67816;SDS011;54614;47.576;7.524;2022-09-02T16:19:26;6.13;;;1.73;;
67816;SDS011;54614;47.576;7.524;2022-09-02T16:21:53;5.68;;;1.80;;
67816;SDS011;54614;47.576;7.524;2022-09-02T16:24:19;4.35;;;1.60;;
67816;SDS011;54614;47.576;7.524;2022-09-02T16:26:47;7.70;;;1.88;;
67816;SDS011;54614;47.576;7.524;2022-09-02T16:29:14;6.38;;;2.17;;
67816;SDS011;54614;47.576;7.524;2022-09-02T16:31:43;6.80;;;1.77;;
67816;SDS011;54614;47.576;7.524;2022-09-02T16:34:13;15.10;;;2.10;;
67816;SDS011;54614;47.576;7.524;2022-09-02T16:36:43;13.52;;;2.10;;
67816;SDS011;54614;47.576;7.524;2022-09-02T16:39:11;8.77;;;1.75;;
67816;SDS011;54614;47.576;7.524;2022-09-02T16:41:40;4.47;;;1.70;;
67816;SDS011;54614;47.576;7.524;2022-09-02T16:44:11;7.13;;;1.70;;
67816;SDS011;54614;47.576;7.524;2022-09-02T16:46:42;5.28;;;1.85;;
67816;SDS011;54614;47.576;7.524;2022-09-02T16:49:11;6.40;;;1.90;;
67816;SDS011;54614;47.576;7.524;2022-09-02T16:51:42;5.25;;;1.77;;
67816;SDS011;54614;47.576;7.524;2022-09-02T16:54:10;4.45;;;1.90;;
67816;SDS011;54614;47.576;7.524;2022-09-02T16:56:37;5.40;;;1.77;;
67816;SDS011;54614;47.576;7.524;2022-09-02T16:59:04;1.60;;;1.50;;
67816;SDS011;54614;47.576;7.524;2022-09-02T17:01:33;5.03;;;1.77;;
67816;SDS011;54614;47.576;7.524;2022-09-02T17:04:00;3.00;;;1.70;;
67816;SDS011;54614;47.576;7.524;2022-09-02T17:06:27;4.07;;;1.58;;
67816;SDS011;54614;47.576;7.524;2022-09-02T17:08:54;8.35;;;1.80;;
67816;SDS011;54614;47.576;7.524;2022-09-02T17:11:25;5.90;;;1.80;;
67816;SDS011;54614;47.576;7.524;2022-09-02T17:14:02;4.95;;;1.70;;
67816;SDS011;54614;47.576;7.524;2022-09-02T17:16:43;3.67;;;1.80;;